createdAt,value
2017-10-10T00:30:47.189Z,92.9
2017-10-10T00:33:44.423Z,93
2017-10-10T00:35:42.650Z,93.1
2017-10-10T00:36:42.124Z,93.3
2017-10-10T00:38:40.213Z,93.4
2017-10-10T00:39:39.048Z,93.3
2017-10-10T00:41:37.640Z,93.5
2017-10-10T00:45:34.007Z,93.6
2017-10-10T00:47:32.458Z,93.7
2017-10-10T00:48:31.438Z,93.8
2017-10-10T00:49:30.511Z,93.8
2017-10-10T00:50:01.033Z,93.8
2017-10-10T00:53:27.254Z,93.9
2017-10-10T00:55:25.842Z,93.9
2017-10-10T00:57:23.690Z,93.7
2017-10-10T00:58:23.024Z,93.7
2017-10-10T00:59:22.096Z,93.7
2017-10-10T01:00:21.301Z,93.7
2017-10-10T01:03:19.033Z,94
2017-10-10T01:04:18.148Z,93.7
2017-10-10T01:05:17.244Z,93.7
2017-10-10T01:07:15.329Z,93.6
2017-10-10T01:08:14.685Z,93.6
2017-10-10T01:10:12.798Z,93.3
2017-10-10T01:11:12.262Z,93.4
2017-10-10T01:12:11.093Z,93.1
2017-10-10T01:14:09.817Z,93.1
2017-10-10T01:15:08.924Z,93.3
2017-10-10T01:20:04.296Z,93.5
2017-10-10T01:22:03.016Z,93.3
2017-10-10T01:24:01.000Z,93.3
2017-10-10T01:25:00.336Z,93.5
2017-10-10T01:30:55.096Z,93.7
2017-10-10T01:31:25.888Z,93.7
2017-10-10T01:32:53.150Z,93.7
2017-10-10T01:35:51.026Z,93.7
2017-10-10T01:36:49.728Z,93.6
2017-10-10T01:38:48.219Z,93.6
2017-10-10T01:44:43.084Z,93.9
2017-10-10T01:46:41.803Z,93.7
2017-10-10T01:47:40.535Z,93.8
2017-10-10T01:48:39.876Z,94
2017-10-10T01:49:39.239Z,94
2017-10-10T01:50:37.820Z,93.9
2017-10-10T01:51:08.605Z,93.9
2017-10-10T01:54:34.895Z,94
2017-10-10T01:55:33.997Z,93.9
2017-10-10T01:56:32.727Z,94
2017-10-10T02:00:29.719Z,94.4
2017-10-10T02:01:28.550Z,94.6
2017-10-10T02:02:27.893Z,94.2
2017-10-10T02:03:27.005Z,94.2
2017-10-10T02:06:24.610Z,94.3
2017-10-10T02:07:23.969Z,94.3
2017-10-10T02:09:22.210Z,94.4
2017-10-10T02:10:21.058Z,94.5
2017-10-10T02:11:20.539Z,94.5
2017-10-10T02:14:17.782Z,94.5
2017-10-10T02:16:16.244Z,94.7
2017-10-10T02:17:15.333Z,94.8
2017-10-10T02:18:14.179Z,94.7
2017-10-10T02:21:11.677Z,94.6
2017-10-10T02:22:10.894Z,94.8
2017-10-10T02:23:10.240Z,94.8
2017-10-10T02:24:09.080Z,94.9
2017-10-10T02:26:07.816Z,94.8
2017-10-10T02:27:06.806Z,95.1
2017-10-10T02:29:05.039Z,95.1
2017-10-10T02:32:02.798Z,95.2
2017-10-10T02:33:01.382Z,95.2
2017-10-10T02:34:59.986Z,95.3
2017-10-10T02:35:59.342Z,95.3
2017-10-10T02:37:57.576Z,95.3
2017-10-10T02:39:55.671Z,95.3
2017-10-10T02:40:54.794Z,95.4
2017-10-10T02:43:52.413Z,95.4
2017-10-10T02:45:50.649Z,95.4
2017-10-10T02:50:46.402Z,95.5
2017-10-10T02:52:44.633Z,95.5
2017-10-10T02:54:43.141Z,95.6
2017-10-10T02:55:42.353Z,95.6
2017-10-10T02:56:41.344Z,95.6
2017-10-10T03:00:38.242Z,95.5
2017-10-10T03:01:36.965Z,95.5
2017-10-10T03:02:36.465Z,95.5
2017-10-10T03:03:35.446Z,95.5
2017-10-10T03:04:34.425Z,95.4
2017-10-10T03:05:34.035Z,95.4
2017-10-10T03:06:32.754Z,95.6
2017-10-10T03:12:27.850Z,95.1
2017-10-10T03:13:27.204Z,95.2
2017-10-10T03:15:25.305Z,95.3
2017-10-10T03:19:21.954Z,95.4
2017-10-10T03:28:14.247Z,95.8
2017-10-10T03:35:08.275Z,96.1
2017-10-10T03:41:03.550Z,96.4
2017-10-10T03:47:57.437Z,96.5
2017-10-10T03:49:55.686Z,96.6
2017-10-10T03:50:54.676Z,96.5
2017-10-10T03:53:52.297Z,96.5
2017-10-10T04:01:45.700Z,96.7
2017-10-10T04:07:40.469Z,96.8
2017-10-10T04:30:20.999Z,97.6
2017-10-10T04:31:20.364Z,97.7
2017-10-10T04:32:19.208Z,97.7
2017-10-10T04:40:12.481Z,97.9
2017-10-10T04:43:10.099Z,97.9
2017-10-10T04:50:04.251Z,97.9
2017-10-10T04:51:03.102Z,97.9
2017-10-10T04:52:02.693Z,97.9
2017-10-10T04:53:01.816Z,97.9
2017-10-10T04:54:59.917Z,97.9
2017-10-10T04:56:58.020Z,98
2017-10-10T04:57:57.362Z,98
2017-10-10T05:02:53.115Z,98.1
2017-10-10T05:03:52.323Z,98.1
2017-10-10T05:04:51.300Z,98.1
2017-10-10T05:05:50.513Z,98.2
2017-10-10T05:06:49.598Z,98.1
2017-10-10T05:07:48.951Z,98.2
2017-10-10T05:08:48.167Z,98.2
2017-10-10T05:09:47.009Z,98.2
2017-10-10T05:10:46.100Z,98.2
2017-10-10T05:11:45.596Z,98.2
2017-10-10T05:12:44.575Z,98.2
2017-10-10T05:13:43.691Z,98.2
2017-10-10T05:14:42.773Z,98.2
2017-10-10T05:15:42.355Z,98.3
2017-10-10T05:16:41.063Z,98.2
2017-10-10T05:17:40.778Z,98.2
2017-10-10T05:18:39.758Z,98.2
2017-10-10T05:19:38.607Z,98.2
2017-10-10T05:20:37.956Z,98.2
2017-10-10T05:21:37.044Z,98.1
2017-10-10T05:22:36.400Z,98.1
2017-10-10T05:23:35.373Z,98.1
2017-10-10T05:24:34.725Z,98.1
2017-10-10T05:25:33.605Z,98.2
2017-10-10T05:26:32.966Z,98.2
2017-10-10T05:27:32.066Z,98.2
2017-10-10T05:28:30.908Z,98.1
2017-10-10T05:31:28.763Z,98.2
2017-10-10T05:32:27.763Z,98.2
2017-10-10T05:33:26.735Z,98.2
2017-10-10T05:34:26.379Z,98.2
2017-10-10T05:35:24.971Z,98.1
2017-10-10T05:36:24.196Z,98.2
2017-10-10T05:37:23.288Z,98.2
2017-10-10T05:38:22.887Z,98.2
2017-10-10T05:39:21.983Z,98.1
2017-10-10T05:40:20.963Z,98.1
2017-10-10T05:41:20.438Z,98
2017-10-10T05:42:19.281Z,98
2017-10-10T05:44:17.376Z,98
2017-10-10T05:46:15.976Z,98
2017-10-10T05:48:14.575Z,98
2017-10-10T05:49:13.554Z,98
2017-10-10T05:50:12.577Z,98
2017-10-10T05:51:11.688Z,98
2017-10-10T05:52:10.670Z,97.9
2017-10-10T05:55:08.155Z,97.9
2017-10-10T05:56:07.764Z,97.8
2017-10-10T05:57:06.603Z,97.6
2017-10-10T05:58:05.965Z,97.5
2017-10-10T05:59:05.046Z,97.5
2017-10-10T06:00:03.893Z,97.6
2017-10-10T06:01:03.109Z,97.6
2017-10-10T06:04:00.600Z,97.3
2017-10-10T06:04:59.829Z,97.2
2017-10-10T06:05:59.053Z,97.1
2017-10-10T06:06:58.173Z,97.1
2017-10-10T06:08:56.775Z,96.8
2017-10-10T06:09:55.627Z,96.9
2017-10-10T06:10:54.716Z,96.9
2017-10-10T06:11:54.334Z,96.9
2017-10-10T06:12:53.174Z,96.8
2017-10-10T06:13:52.159Z,96.7
2017-10-10T06:14:51.242Z,96.8
2017-10-10T06:15:50.449Z,96.7
2017-10-10T06:16:49.528Z,96.8
2017-10-10T06:17:49.006Z,96.9
2017-10-10T06:18:47.992Z,96.8
2017-10-10T06:19:47.466Z,96.8
2017-10-10T06:20:46.459Z,97
2017-10-10T06:21:45.549Z,96.6
2017-10-10T06:22:45.591Z,96.6
2017-10-10T06:23:44.057Z,96.7
2017-10-10T06:25:42.429Z,96.8
2017-10-10T06:26:41.171Z,96.6
2017-10-10T06:27:40.276Z,96.6
2017-10-10T06:28:40.001Z,96.5
2017-10-10T06:29:39.090Z,96.6
2017-10-10T06:31:37.055Z,96.7
2017-10-10T06:33:35.288Z,96.8
2017-10-10T06:34:34.895Z,96.6
2017-10-10T06:36:32.861Z,96.6
2017-10-10T06:37:32.454Z,96.6
2017-10-10T06:38:31.165Z,96.5
2017-10-10T06:39:30.382Z,96.5
2017-10-10T06:40:29.728Z,96.7
2017-10-10T06:41:28.576Z,96.5
2017-10-10T06:42:27.929Z,96.5
2017-10-10T06:43:27.404Z,96.5
2017-10-10T06:44:26.018Z,96.1
2017-10-10T06:45:25.371Z,96.2
2017-10-10T06:46:24.474Z,96.2
2017-10-10T06:47:23.561Z,96.4
2017-10-10T06:48:22.911Z,96.4
2017-10-10T06:49:21.889Z,96.4
2017-10-10T06:50:21.369Z,96.4
2017-10-10T06:53:18.716Z,96.5
2017-10-10T06:54:17.827Z,96.4
2017-10-10T06:55:17.043Z,96.5
2017-10-10T06:56:16.155Z,96.3
2017-10-10T06:57:15.367Z,96.4
2017-10-10T06:58:14.453Z,96.3
2017-10-10T06:59:13.540Z,96.2
2017-10-10T07:00:12.623Z,96.4
2017-10-10T07:02:11.226Z,96.3
2017-10-10T07:04:09.460Z,96.2
2017-10-10T07:05:08.313Z,96.3
2017-10-10T07:06:08.037Z,96.4
2017-10-10T07:07:07.024Z,96.4
2017-10-10T07:09:05.114Z,96.4
2017-10-10T07:10:04.567Z,96.2
2017-10-10T07:11:03.418Z,96.1
2017-10-10T07:13:02.016Z,96.2
2017-10-10T07:14:00.857Z,96.2
2017-10-10T07:15:00.341Z,96.2
2017-10-10T07:15:59.321Z,96.1
2017-10-10T07:16:29.609Z,96.1
2017-10-10T07:18:57.032Z,95.9
2017-10-10T07:21:54.525Z,95.8
2017-10-10T07:22:53.740Z,95.8
2017-10-10T07:24:51.864Z,95.9
2017-10-10T07:26:50.465Z,95.8
2017-10-10T07:27:20.754Z,95.8
2017-10-10T07:27:50.906Z,95.9
2017-10-10T07:28:21.459Z,95.9
2017-10-10T07:29:47.761Z,95.5
2017-10-10T07:30:46.608Z,95.5
2017-10-10T07:31:45.956Z,95.5
2017-10-10T07:32:44.947Z,95.6
2017-10-10T07:34:43.816Z,95.7
2017-10-10T07:35:42.665Z,95.6
2017-10-10T07:36:42.158Z,95.6
2017-10-10T07:39:39.136Z,95.4
2017-10-10T07:40:38.494Z,95.4
2017-10-10T07:41:37.707Z,95.5
2017-10-10T07:43:35.933Z,95.2
2017-10-10T07:44:35.025Z,95.3
2017-10-10T07:45:34.508Z,95.3
2017-10-10T07:46:33.592Z,95.4
2017-10-10T07:47:32.800Z,94.9
2017-10-10T07:49:31.024Z,95.1
2017-10-10T07:50:30.022Z,95.1
2017-10-10T07:51:29.376Z,94.9
2017-10-10T07:53:27.475Z,94.5
2017-10-10T07:54:26.829Z,94.6
2017-10-10T07:55:26.174Z,94.7
2017-10-10T07:56:24.898Z,94.5
2017-10-10T07:57:24.114Z,94.5
2017-10-10T07:58:23.333Z,94.4
2017-10-10T07:58:53.739Z,94.4
2017-10-10T07:59:24.136Z,94.4
2017-10-10T07:59:54.801Z,94.4
2017-10-10T08:01:21.073Z,94.8
2017-10-10T08:02:20.154Z,94.7
2017-10-10T08:03:19.513Z,94.5
2017-10-10T08:04:18.367Z,94.2
2017-10-10T08:05:17.455Z,94.4
2017-10-10T08:06:16.799Z,94.2
2017-10-10T08:07:16.022Z,94.1
2017-10-10T08:08:15.144Z,94
2017-10-10T08:09:14.248Z,94.1
2017-10-10T08:09:44.913Z,94.1
2017-10-10T08:10:15.475Z,94.2
2017-10-10T08:10:46.125Z,94.2
2017-10-10T08:11:16.652Z,94.9
2017-10-10T08:12:11.840Z,94
2017-10-10T08:13:11.318Z,93.7
2017-10-10T08:14:10.298Z,93.7
2017-10-10T08:15:09.274Z,93.8
2017-10-10T08:16:08.623Z,93.3
2017-10-10T08:17:07.595Z,93.2
2017-10-10T08:18:07.076Z,93.5
2017-10-10T08:19:06.069Z,93.9
2017-10-10T08:20:05.559Z,93.9
2017-10-10T08:21:04.402Z,93.5
2017-10-10T08:22:03.882Z,93.3
2017-10-10T08:23:03.099Z,93.2
2017-10-10T08:25:01.287Z,93.1
2017-10-10T08:26:00.538Z,93
2017-10-10T08:27:58.395Z,93
2017-10-10T08:28:57.975Z,92.7
2017-10-10T08:29:56.824Z,93.1
2017-10-10T08:30:56.033Z,93.3
2017-10-10T08:31:55.244Z,93.3
2017-10-10T08:32:54.455Z,93.5
2017-10-10T08:33:53.937Z,93.3
2017-10-10T08:34:53.054Z,93
2017-10-10T08:35:51.898Z,93.3
2017-10-10T08:36:51.378Z,93.5
2017-10-10T08:37:50.217Z,93.4
2017-10-10T08:38:49.704Z,93.5
2017-10-10T08:39:49.054Z,92.7
2017-10-10T08:41:47.147Z,93.1
2017-10-10T08:42:46.360Z,93.2
2017-10-10T08:43:45.469Z,93.3
2017-10-10T08:44:44.683Z,93.5
2017-10-10T08:45:44.039Z,93.2
2017-10-10T08:46:43.018Z,93.3
2017-10-10T08:49:40.502Z,93.3
2017-10-10T08:50:39.612Z,92.8
2017-10-10T08:51:39.219Z,93.3
2017-10-10T08:52:38.203Z,93.2
2017-10-10T08:53:37.184Z,93.3
2017-10-10T08:54:36.398Z,93.6
2017-10-10T08:55:35.977Z,93.9
2017-10-10T08:56:34.691Z,93.7
2017-10-10T08:57:33.912Z,93.7
2017-10-10T08:58:33.263Z,93.7
2017-10-10T09:00:31.496Z,92.6
2017-10-10T09:01:30.844Z,92.7
2017-10-10T09:02:29.830Z,92.7
2017-10-10T09:03:28.910Z,92.1
2017-10-10T09:04:28.345Z,92.3
2017-10-10T09:05:27.718Z,92.5
2017-10-10T09:06:26.797Z,91.9
2017-10-10T09:07:25.905Z,92.5
2017-10-10T09:08:24.745Z,92.4
2017-10-10T09:09:24.332Z,92.1
2017-10-10T09:11:22.567Z,92
2017-10-10T09:12:21.648Z,91.6
2017-10-10T09:13:21.132Z,91.7
2017-10-10T09:14:20.127Z,91.6
2017-10-10T09:15:19.606Z,92
2017-10-10T09:16:18.390Z,91.6
2017-10-10T09:17:17.975Z,91.1
2017-10-10T09:18:17.064Z,91.5
2017-10-10T09:19:15.772Z,90.9
2017-10-10T09:20:14.998Z,91
2017-10-10T09:21:14.214Z,91.2
2017-10-10T09:22:13.568Z,91.5
2017-10-10T09:23:12.552Z,91.5
2017-10-10T09:24:11.898Z,91.1
2017-10-10T09:25:10.988Z,90.6
2017-10-10T09:26:10.343Z,91.1
2017-10-10T09:27:09.598Z,90.6
2017-10-10T09:28:08.572Z,91.1
2017-10-10T09:29:07.925Z,91
2017-10-10T09:30:07.031Z,90.7
2017-10-10T09:31:06.251Z,90.8
2017-10-10T09:32:05.228Z,90.8
2017-10-10T09:33:04.574Z,90.4
2017-10-10T09:34:03.656Z,90.7
2017-10-10T09:35:03.044Z,91.4
2017-10-10T09:36:02.533Z,90.1
2017-10-10T09:36:33.065Z,90.1
2017-10-10T09:37:03.592Z,89.9
2017-10-10T09:38:00.565Z,90.3
2017-10-10T09:38:59.544Z,89.9
2017-10-10T09:39:58.896Z,90.6
2017-10-10T09:40:58.249Z,90.2
2017-10-10T09:41:57.236Z,90.6
2017-10-10T09:42:56.461Z,89.8
2017-10-10T09:44:54.706Z,90.2
2017-10-10T09:45:54.432Z,89.6
2017-10-10T09:46:24.725Z,89.6
2017-10-10T09:46:55.266Z,89.8
2017-10-10T09:47:26.067Z,89.8
2017-10-10T09:49:50.859Z,90.2
2017-10-10T09:50:21.011Z,90.2
2017-10-10T09:50:51.545Z,89
2017-10-10T09:51:49.015Z,89.2
2017-10-10T09:52:48.656Z,88.9
2017-10-10T09:54:46.617Z,89.5
2017-10-10T09:55:46.202Z,87.5
2017-10-10T09:56:45.551Z,88.2
2017-10-10T09:57:44.406Z,87.5
2017-10-10T09:58:43.770Z,87.5
2017-10-10T09:59:42.983Z,87.9
2017-10-10T10:00:42.106Z,88
2017-10-10T10:01:40.952Z,88.1
2017-10-10T10:02:40.310Z,88.4
2017-10-10T10:03:39.794Z,87.3
2017-10-10T10:04:39.052Z,87.1
2017-10-10T10:05:37.763Z,87.6
2017-10-10T10:06:37.113Z,86.9
2017-10-10T10:07:36.336Z,86.2
2017-10-10T10:08:35.453Z,86.5
2017-10-10T10:09:34.670Z,86.7
2017-10-10T10:10:34.122Z,85.5
2017-10-10T10:11:33.339Z,85.4
2017-10-10T10:12:32.560Z,85.7
2017-10-10T10:13:31.548Z,86.4
2017-10-10T10:14:30.764Z,86.6
2017-10-10T10:15:30.243Z,86.4
2017-10-10T10:16:29.100Z,85.2
2017-10-10T10:17:28.447Z,85.5
2017-10-10T10:17:58.870Z,85.5
2017-10-10T10:18:29.027Z,85.4
2017-10-10T10:19:26.760Z,85.8
2017-10-10T10:20:25.985Z,84.1
2017-10-10T10:21:25.463Z,84.4
2017-10-10T10:22:24.168Z,85
2017-10-10T10:23:23.656Z,84
2017-10-10T10:24:22.504Z,83
2017-10-10T10:26:21.498Z,83.4
2017-10-10T10:27:20.491Z,84.2
2017-10-10T10:28:19.712Z,83.8
2017-10-10T10:28:50.132Z,83.8
2017-10-10T10:29:20.571Z,83.6
2017-10-10T10:29:51.101Z,83.6
2017-10-10T10:30:21.407Z,82.9
2017-10-10T10:30:52.072Z,82.9
2017-10-10T10:32:16.319Z,83
2017-10-10T10:33:15.540Z,82.1
2017-10-10T10:34:14.628Z,83
2017-10-10T10:35:13.851Z,81.1
2017-10-10T10:36:13.065Z,81.2
2017-10-10T10:37:12.679Z,81.8
2017-10-10T10:38:11.762Z,81.3
2017-10-10T10:39:10.615Z,82.2
2017-10-10T10:39:41.270Z,82.2
2017-10-10T10:40:11.565Z,80.5
2017-10-10T10:40:41.997Z,80.5
2017-10-10T10:41:12.559Z,82.1
2017-10-10T10:41:42.954Z,82.1
2017-10-10T10:43:07.705Z,81.8
2017-10-10T10:44:06.914Z,81.3
2017-10-10T10:45:06.141Z,81.7
2017-10-10T10:46:05.505Z,81.9
2017-10-10T10:47:04.856Z,81.3
2017-10-10T10:48:03.700Z,80.5
2017-10-10T10:49:03.197Z,80.4
2017-10-10T10:50:02.067Z,80
2017-10-10T10:51:01.555Z,80.3
2017-10-10T10:52:00.570Z,81.2
2017-10-10T10:52:59.788Z,80.8
2017-10-10T10:53:59.144Z,80.8
2017-10-10T10:54:58.352Z,80.8
2017-10-10T10:56:56.718Z,81.7
2017-10-10T10:57:55.704Z,80.8
2017-10-10T10:58:55.058Z,81.1
2017-10-10T10:59:54.418Z,80.8
2017-10-10T11:00:53.899Z,80.9
2017-10-10T11:02:52.141Z,80.7
2017-10-10T11:04:50.374Z,80.8
2017-10-10T11:05:49.997Z,80.9
2017-10-10T11:06:49.072Z,80.6
2017-10-10T11:08:47.306Z,81
2017-10-10T11:09:46.664Z,81.5
2017-10-10T11:11:45.141Z,80.9
2017-10-10T11:12:44.359Z,81.4
2017-10-10T11:13:43.346Z,82.2
2017-10-10T11:15:41.578Z,81.4
2017-10-10T11:16:41.173Z,81.1
2017-10-10T11:17:40.520Z,81
2017-10-10T11:18:39.763Z,81.3
2017-10-10T11:19:38.482Z,81.6
2017-10-10T11:20:37.838Z,81.4
2017-10-10T11:21:36.939Z,80.5
2017-10-10T11:22:36.151Z,80.8
2017-10-10T11:23:35.636Z,81.3
2017-10-10T11:24:34.857Z,81
2017-10-10T11:25:33.969Z,80.6
2017-10-10T11:26:33.051Z,80.9
2017-10-10T11:28:31.420Z,81.2
2017-10-10T11:29:31.008Z,81
2017-10-10T11:30:30.360Z,81.3
2017-10-10T11:31:29.582Z,81.2
2017-10-10T11:32:28.593Z,80.4
2017-10-10T11:33:27.573Z,80.7
2017-10-10T11:35:26.185Z,80
2017-10-10T11:36:25.666Z,80
2017-10-10T11:37:24.641Z,79.9
2017-10-10T11:38:24.005Z,79.2
2017-10-10T11:39:23.224Z,80.2
2017-10-10T11:41:21.837Z,79.6
2017-10-10T11:42:20.923Z,78.9
2017-10-10T11:43:19.768Z,78.7
2017-10-10T11:44:19.250Z,79.5
2017-10-10T11:45:18.596Z,79.5
2017-10-10T11:46:17.586Z,80
2017-10-10T11:47:16.937Z,80.2
2017-10-10T11:48:16.022Z,80.2
2017-10-10T11:49:15.524Z,80.5
2017-10-10T11:50:14.231Z,80.6
2017-10-10T11:52:12.969Z,81.1
2017-10-10T11:53:12.184Z,81.6
2017-10-10T11:54:11.409Z,81.6
2017-10-10T11:55:10.627Z,81.7
2017-10-10T11:56:09.995Z,83
2017-10-10T11:57:09.341Z,82.7
2017-10-10T11:58:08.191Z,81.9
2017-10-10T11:59:07.684Z,82.2
2017-10-10T12:00:06.817Z,82.7
2017-10-10T12:02:05.344Z,82.8
2017-10-10T12:03:04.249Z,82.2
2017-10-10T12:04:03.480Z,82.4
2017-10-10T12:06:02.130Z,81.5
2017-10-10T12:06:32.791Z,81.5
2017-10-10T12:07:03.468Z,82.4
2017-10-10T12:07:34.136Z,82.4
2017-10-10T12:08:59.790Z,81.4
2017-10-10T12:09:59.275Z,81.4
2017-10-10T12:10:58.358Z,81.2
2017-10-10T12:11:57.210Z,81.6
2017-10-10T12:12:56.565Z,82.3
2017-10-10T12:13:55.915Z,81.7
2017-10-10T12:14:55.262Z,82.2
2017-10-10T12:15:54.368Z,82.9
2017-10-10T12:16:53.455Z,83.8
2017-10-10T12:17:23.984Z,83.8
2017-10-10T12:17:54.383Z,82.9
2017-10-10T12:18:24.910Z,82.9
2017-10-10T12:19:51.443Z,84
2017-10-10T12:20:50.294Z,84.3
2017-10-10T12:21:49.635Z,84.6
2017-10-10T12:22:48.847Z,85
2017-10-10T12:23:48.324Z,84.2
2017-10-10T12:24:47.326Z,84.9
2017-10-10T12:25:46.677Z,84.7
2017-10-10T12:26:45.515Z,85.2
2017-10-10T12:27:45.099Z,84.3
2017-10-10T12:28:44.310Z,84.9
2017-10-10T12:29:43.279Z,85.7
2017-10-10T12:30:42.643Z,85.5
2017-10-10T12:31:41.841Z,85.6
2017-10-10T12:32:41.338Z,86.3
2017-10-10T12:33:40.051Z,86.4
2017-10-10T12:34:39.636Z,85.5
2017-10-10T12:35:38.602Z,86.7
2017-10-10T12:37:36.960Z,86.5
2017-10-10T12:38:36.543Z,86.6
2017-10-10T12:39:35.897Z,86.8
2017-10-10T12:40:34.745Z,87.1
2017-10-10T12:41:34.373Z,87.6
2017-10-10T12:42:33.346Z,87.4
2017-10-10T12:43:32.478Z,88.2
2017-10-10T12:44:31.696Z,88.2
2017-10-10T12:45:30.912Z,88.4
2017-10-10T12:46:30.063Z,88.6
2017-10-10T12:47:29.541Z,89
2017-10-10T12:48:28.388Z,89.5
2017-10-10T12:49:28.010Z,89.6
2017-10-10T12:50:26.964Z,89.6
2017-10-10T12:50:57.766Z,89.6
2017-10-10T12:52:25.804Z,89.6
2017-10-10T12:53:24.647Z,90.7
2017-10-10T12:54:23.859Z,90.5
2017-10-10T12:55:23.216Z,90.1
2017-10-10T12:56:22.192Z,90.1
2017-10-10T12:57:21.908Z,90.5
2017-10-10T12:58:20.625Z,90.4
2017-10-10T12:59:19.855Z,90.9
2017-10-10T13:00:19.076Z,91.4
2017-10-10T13:01:18.429Z,91.6
2017-10-10T13:01:48.962Z,91.6
2017-10-10T13:02:19.498Z,91.7
2017-10-10T13:03:16.961Z,91.3
2017-10-10T13:04:16.072Z,91
2017-10-10T13:05:15.320Z,91.3
2017-10-10T13:06:14.445Z,91.1
2017-10-10T13:07:13.796Z,91.5
2017-10-10T13:08:12.875Z,91.5
2017-10-10T13:09:12.093Z,91.6
2017-10-10T13:10:11.577Z,91
2017-10-10T13:11:10.300Z,91.3
2017-10-10T13:12:09.783Z,91.3
2017-10-10T13:14:08.020Z,91.9
2017-10-10T13:15:07.362Z,92
2017-10-10T13:18:04.984Z,92.3
2017-10-10T13:19:04.478Z,92
2017-10-10T13:20:03.460Z,91.9
2017-10-10T13:21:02.799Z,92.2
2017-10-10T13:22:02.031Z,92.4
2017-10-10T13:23:01.243Z,92.8
2017-10-10T13:24:00.225Z,92.7
2017-10-10T13:24:59.714Z,91.9
2017-10-10T13:25:59.064Z,92.1
2017-10-10T13:26:58.052Z,92
2017-10-10T13:27:56.898Z,91.7
2017-10-10T13:28:56.511Z,91.6
2017-10-10T13:29:55.758Z,91.5
2017-10-10T13:30:54.756Z,91.6
2017-10-10T13:31:53.982Z,91.7
2017-10-10T13:32:53.225Z,91.7
2017-10-10T13:33:52.593Z,91.4
2017-10-10T13:34:51.816Z,91.2
2017-10-10T13:35:51.036Z,91.5
2017-10-10T13:36:49.884Z,91.6
2017-10-10T13:37:49.608Z,90.7
2017-10-10T13:38:48.374Z,91
2017-10-10T13:39:48.002Z,91.3
2017-10-10T13:40:47.101Z,91
2017-10-10T13:42:45.198Z,91
2017-10-10T13:43:44.568Z,90.6
2017-10-10T13:44:43.924Z,91
2017-10-10T13:45:42.904Z,90.2
2017-10-10T13:46:42.419Z,90.6
2017-10-10T13:47:41.526Z,90.6
2017-10-10T13:48:40.883Z,89.9
2017-10-10T13:49:39.721Z,90
2017-10-10T13:50:39.208Z,89.7
2017-10-10T13:51:38.293Z,89.8
2017-10-10T13:52:37.513Z,88.7
2017-10-10T13:53:36.356Z,89.6
2017-10-10T13:54:35.837Z,88.8
2017-10-10T13:55:35.180Z,88.7
2017-10-10T13:56:34.395Z,88.7
2017-10-10T13:57:33.251Z,88.7
2017-10-10T13:58:32.738Z,89.3
2017-10-10T13:59:31.831Z,89.4
2017-10-10T14:00:02.624Z,89.4
2017-10-10T14:00:33.024Z,88.9
2017-10-10T14:01:03.555Z,88.9
2017-10-10T14:01:33.716Z,88.9
2017-10-10T14:02:29.779Z,88.4
2017-10-10T14:04:27.740Z,88.5
2017-10-10T14:05:26.876Z,88.5
2017-10-10T14:06:26.368Z,89.1
2017-10-10T14:07:25.721Z,89
2017-10-10T14:08:24.932Z,89.2
2017-10-10T14:09:24.038Z,87.8
2017-10-10T14:11:22.268Z,87.3
2017-10-10T14:12:21.627Z,87.1
2017-10-10T14:13:20.984Z,87.1
2017-10-10T14:14:19.836Z,87
2017-10-10T14:15:19.204Z,87.2
2017-10-10T14:16:18.560Z,87.5
2017-10-10T14:17:17.912Z,87.8
2017-10-10T14:18:16.902Z,86.9
2017-10-10T14:19:16.258Z,87.3
2017-10-10T14:20:15.220Z,87.5
2017-10-10T14:21:14.477Z,87.4
2017-10-10T14:22:13.562Z,86.8
2017-10-10T14:23:12.910Z,87.2
2017-10-10T14:24:12.258Z,87.7
2017-10-10T14:25:11.240Z,87.5
2017-10-10T14:26:10.320Z,87.7
2017-10-10T14:27:09.909Z,88.4
2017-10-10T14:28:08.896Z,87.8
2017-10-10T14:29:08.380Z,87.8
2017-10-10T14:30:07.751Z,87.8
2017-10-10T14:31:06.601Z,87.4
2017-10-10T14:32:05.825Z,87.1
2017-10-10T14:33:05.180Z,87.3
2017-10-10T14:34:04.397Z,86.9
2017-10-10T14:35:03.520Z,86.5
2017-10-10T14:36:02.869Z,86.9
2017-10-10T14:37:01.845Z,86.1
2017-10-10T14:38:01.077Z,85.8
2017-10-10T14:39:00.051Z,85.9
2017-10-10T14:40:58.546Z,86.3
2017-10-10T14:46:54.214Z,86.4
2017-10-10T14:47:53.059Z,86.3
2017-10-10T14:49:51.439Z,86.3
2017-10-10T14:50:51.095Z,86.3
2017-10-10T14:51:50.074Z,86.6
2017-10-10T14:52:49.154Z,86.9
2017-10-10T14:56:46.291Z,86.1
2017-10-10T14:57:45.512Z,85.3
2017-10-10T14:58:44.867Z,85.4
2017-10-10T15:01:42.347Z,85
2017-10-10T15:02:41.327Z,85.2
2017-10-10T15:03:40.690Z,84.4
2017-10-10T15:04:39.690Z,84.1
2017-10-10T15:05:39.172Z,84.1
2017-10-10T15:06:38.149Z,84.2
2017-10-10T15:07:37.359Z,84.5
2017-10-10T15:09:35.594Z,85
2017-10-10T15:21:26.541Z,84.7
2017-10-10T15:23:24.645Z,84.9
2017-10-10T15:24:24.003Z,84.3
2017-10-10T15:25:23.222Z,84.8
2017-10-10T15:26:22.579Z,84.7
2017-10-10T15:27:21.531Z,85.1
2017-10-10T15:28:20.752Z,84.9
2017-10-10T15:29:20.119Z,84.9
2017-10-10T15:30:19.468Z,84.8
2017-10-10T15:31:18.678Z,84.5
2017-10-10T15:32:17.767Z,84.8
2017-10-10T15:33:17.244Z,84.6
2017-10-10T15:34:16.230Z,85.3
2017-10-10T15:35:15.695Z,84.9
2017-10-10T15:36:14.771Z,85.3
2017-10-10T15:37:14.127Z,85.4
2017-10-10T15:38:13.345Z,84.3
2017-10-10T15:39:12.695Z,84.5
2017-10-10T15:41:10.930Z,84.5
2017-10-10T15:42:09.910Z,84.7
2017-10-10T15:43:09.257Z,84.9
2017-10-10T15:45:07.622Z,84.8
2017-10-10T15:46:07.915Z,85
2017-10-10T15:47:06.162Z,85.1
2017-10-10T15:48:05.156Z,85.1
2017-10-10T15:49:04.376Z,85.2
2017-10-10T15:50:03.607Z,85.4
2017-10-10T15:51:02.730Z,85.4
2017-10-10T15:52:02.078Z,86.1
2017-10-10T15:53:01.306Z,85.6
2017-10-10T15:54:00.798Z,85.9
2017-10-10T15:54:59.521Z,86.6
2017-10-10T15:55:58.744Z,86.1
2017-10-10T15:56:57.972Z,86.4
2017-10-10T15:57:57.329Z,86
2017-10-10T15:58:56.536Z,86.3
2017-10-10T15:59:56.016Z,86.2
2017-10-10T16:00:55.120Z,86.1
2017-10-10T16:01:54.345Z,86.3
2017-10-10T16:02:53.695Z,86.4
2017-10-10T16:03:52.539Z,86.9
2017-10-10T16:04:52.159Z,86.8
2017-10-10T16:05:51.504Z,86.8
2017-10-10T16:06:50.229Z,86.8
2017-10-10T16:07:49.597Z,86.9
2017-10-10T16:08:48.697Z,86.9
2017-10-10T16:09:47.785Z,86.8
2017-10-10T16:10:47.013Z,87.2
2017-10-10T16:11:17.528Z,87.2
2017-10-10T16:13:44.958Z,87.3
2017-10-10T16:14:44.313Z,87.2
2017-10-10T16:15:43.167Z,86.9
2017-10-10T16:16:42.513Z,87.3
2017-10-10T16:17:41.862Z,87.6
2017-10-10T16:18:41.206Z,87.1
2017-10-10T16:19:40.140Z,87.2
2017-10-10T16:20:39.243Z,87.6
2017-10-10T16:21:38.595Z,87.3
2017-10-10T16:23:36.958Z,87.1
2017-10-10T16:24:35.930Z,87.2
2017-10-10T16:25:35.153Z,87.1
2017-10-10T16:26:34.630Z,87.3
2017-10-10T16:28:33.130Z,87.2
2017-10-10T16:29:03.794Z,87.2
2017-10-10T16:29:34.328Z,87.4
2017-10-10T16:30:04.623Z,87.4
2017-10-10T16:30:35.152Z,87.3
2017-10-10T16:31:05.582Z,87.3
2017-10-10T16:32:29.980Z,86.9
2017-10-10T16:33:28.823Z,86.8
2017-10-10T16:34:28.038Z,87
2017-10-10T16:35:27.265Z,87.2
2017-10-10T16:36:26.614Z,87.3
2017-10-10T16:37:25.703Z,87.4
2017-10-10T16:38:25.186Z,87.2
2017-10-10T16:39:24.276Z,87.3
2017-10-10T16:40:23.488Z,87.2
2017-10-10T16:41:22.853Z,87.6
2017-10-10T16:42:21.801Z,87.4
2017-10-10T16:43:21.448Z,87.6
2017-10-10T16:44:20.539Z,87.7
2017-10-10T16:45:19.389Z,87.6
2017-10-10T16:46:18.603Z,87.5
2017-10-10T16:47:18.086Z,87.5
2017-10-10T16:48:17.075Z,87.5
2017-10-10T16:49:16.287Z,87.8
2017-10-10T16:50:15.642Z,87.8
2017-10-10T16:51:14.856Z,88.5
2017-10-10T16:52:13.839Z,88.2
2017-10-10T16:53:13.054Z,88.3
2017-10-10T16:54:12.399Z,88.4
2017-10-10T16:55:11.757Z,88.2
2017-10-10T16:56:10.968Z,88.4
2017-10-10T16:57:09.823Z,88.3
2017-10-10T16:58:09.413Z,88.5
2017-10-10T16:59:08.631Z,89
2017-10-10T17:00:07.986Z,88.7
2017-10-10T17:01:06.837Z,88.7
2017-10-10T17:02:06.201Z,89
2017-10-10T17:03:05.185Z,88.9
2017-10-10T17:04:04.532Z,89.2
2017-10-10T17:05:03.745Z,89.2
2017-10-10T17:06:03.117Z,88.9
2017-10-10T17:07:02.198Z,89
2017-10-10T17:08:01.291Z,89.1
2017-10-10T17:09:00.643Z,89
2017-10-10T17:09:59.863Z,89.2
2017-10-10T17:10:58.838Z,89.3
2017-10-10T17:11:29.374Z,89.3
2017-10-10T17:12:57.144Z,89.3
2017-10-10T17:13:56.731Z,89.1
2017-10-10T17:14:55.946Z,89.2
2017-10-10T17:15:55.169Z,89.4
2017-10-10T17:16:54.518Z,89
2017-10-10T17:17:53.366Z,89.1
2017-10-10T17:18:52.444Z,89.1
2017-10-10T17:19:51.920Z,89
2017-10-10T17:20:51.016Z,88.9
2017-10-10T17:21:50.247Z,89.1
2017-10-10T17:22:20.779Z,89.1
2017-10-10T17:22:51.172Z,89.3
2017-10-10T17:23:21.475Z,89.3
2017-10-10T17:23:52.234Z,89.2
2017-10-10T17:24:48.067Z,89.2
2017-10-10T17:25:47.417Z,89.2
2017-10-10T17:26:46.380Z,88.8
2017-10-10T17:27:45.594Z,89
2017-10-10T17:28:44.942Z,89
2017-10-10T17:29:44.052Z,88.9
2017-10-10T17:30:43.275Z,88.6
2017-10-10T17:31:42.487Z,88.8